createdAt,value
2023-08-11T00:01:18.977Z,70.08
2023-08-11T00:03:46.170Z,70.13
2023-08-11T00:06:15.179Z,70.18
2023-08-11T00:08:42.045Z,70.62
2023-08-11T00:11:09.112Z,71.31
2023-08-11T00:13:36.680Z,71.13
2023-08-11T00:16:04.775Z,71.64
2023-08-11T00:18:31.866Z,71.58
2023-08-11T00:21:00.344Z,71.31
2023-08-11T00:23:27.290Z,71.46
2023-08-11T00:25:54.025Z,71.71
2023-08-11T00:28:20.860Z,72.16
2023-08-11T00:30:47.752Z,72.41
2023-08-11T00:33:14.824Z,72.59
2023-08-11T00:35:44.494Z,72.85
2023-08-11T00:38:11.513Z,72.79
2023-08-11T00:40:38.482Z,72.69
2023-08-11T00:43:05.416Z,72.96
2023-08-11T00:45:32.390Z,72.93
2023-08-11T00:47:59.609Z,73.20
2023-08-11T00:50:27.100Z,73.80
2023-08-11T00:52:54.078Z,73.36
2023-08-11T00:55:23.042Z,73.75
2023-08-11T00:57:50.223Z,73.80
2023-08-11T01:00:17.605Z,73.98
2023-08-11T01:02:45.706Z,73.70
2023-08-11T01:05:15.494Z,73.97
2023-08-11T01:07:57.620Z,74.00
2023-08-11T01:10:35.000Z,74.30
2023-08-11T01:13:07.489Z,74.17
2023-08-11T01:15:40.745Z,74.46
2023-08-11T01:18:09.033Z,74.54
2023-08-11T01:20:38.338Z,74.70
2023-08-11T01:23:07.888Z,74.54
2023-08-11T01:25:36.011Z,73.76
2023-08-11T01:28:03.756Z,73.29
2023-08-11T01:30:31.566Z,73.52
2023-08-11T01:32:58.503Z,73.87
2023-08-11T01:35:34.258Z,73.60
2023-08-11T01:38:08.128Z,73.19
2023-08-11T01:40:35.322Z,73.24
2023-08-11T01:43:04.739Z,73.10
2023-08-11T01:45:31.568Z,73.03
2023-08-11T01:48:00.468Z,73.41
2023-08-11T01:50:29.120Z,73.25
2023-08-11T01:52:56.151Z,73.67
2023-08-11T01:55:26.139Z,73.76
2023-08-11T01:57:59.105Z,74.22
2023-08-11T02:00:27.958Z,74.03
2023-08-11T02:02:55.191Z,74.50
2023-08-11T02:05:25.994Z,74.59
2023-08-11T02:07:54.241Z,74.45
2023-08-11T02:10:21.383Z,74.86
2023-08-11T02:12:49.373Z,74.97
2023-08-11T02:15:16.485Z,74.62
2023-08-11T02:17:43.809Z,74.61
2023-08-11T02:20:31.523Z,74.27
2023-08-11T02:22:58.258Z,74.03
2023-08-11T02:25:27.091Z,74.48
2023-08-11T02:27:54.556Z,74.39
2023-08-11T02:30:23.468Z,73.92
2023-08-11T02:32:51.664Z,73.78
2023-08-11T02:35:19.055Z,73.84
2023-08-11T02:37:46.108Z,74.38
2023-08-11T02:40:13.173Z,75.08
2023-08-11T02:42:45.236Z,74.96
2023-08-11T02:45:12.730Z,74.78
2023-08-11T02:47:43.599Z,74.75
2023-08-11T02:50:11.047Z,74.86
2023-08-11T02:52:38.708Z,74.73
2023-08-11T02:55:06.712Z,74.69
2023-08-11T02:57:34.558Z,75.01
2023-08-11T03:00:01.952Z,75.15
2023-08-11T03:02:28.758Z,74.79
2023-08-11T03:04:55.604Z,74.49
2023-08-11T03:07:22.337Z,74.30
2023-08-11T03:09:49.061Z,74.33
2023-08-11T03:12:15.834Z,74.45
2023-08-11T03:14:43.061Z,74.68
2023-08-11T03:17:11.417Z,74.16
2023-08-11T03:19:38.211Z,74.32
2023-08-11T03:22:05.211Z,74.86
2023-08-11T03:24:32.035Z,74.53
2023-08-11T03:26:58.738Z,74.86
2023-08-11T03:29:25.386Z,74.53
2023-08-11T03:31:52.065Z,74.44
2023-08-11T03:34:18.892Z,74.71
2023-08-11T03:36:45.764Z,74.91
2023-08-11T03:39:12.784Z,74.77
2023-08-11T03:41:39.569Z,75.04
2023-08-11T03:44:06.616Z,74.76
2023-08-11T03:46:33.545Z,74.89
2023-08-11T03:49:00.304Z,74.89
2023-08-11T03:51:27.661Z,74.78
2023-08-11T03:53:54.568Z,75.19
2023-08-11T03:56:21.388Z,75.33
2023-08-11T03:58:48.099Z,75.22
2023-08-11T04:01:14.857Z,75.47
2023-08-11T04:03:41.837Z,75.35
2023-08-11T04:06:08.634Z,75.29
2023-08-11T04:08:35.362Z,75.74
2023-08-11T04:11:02.267Z,75.64
2023-08-11T04:13:29.457Z,75.63
2023-08-11T04:15:56.133Z,75.60
2023-08-11T04:18:22.993Z,75.86
2023-08-11T04:20:49.643Z,75.67
2023-08-11T04:23:16.306Z,75.67
2023-08-11T04:25:44.549Z,75.71
2023-08-11T04:28:11.655Z,75.78
2023-08-11T04:30:38.848Z,75.78
2023-08-11T04:33:06.826Z,76.04
2023-08-11T04:35:34.451Z,75.89
2023-08-11T04:38:01.322Z,76.09
2023-08-11T04:40:28.100Z,75.94
2023-08-11T04:42:54.805Z,76.31
2023-08-11T04:45:21.639Z,76.41
2023-08-11T04:47:48.728Z,76.40
2023-08-11T04:50:15.547Z,76.61
2023-08-11T04:52:43.906Z,76.79
2023-08-11T04:55:13.947Z,77.01
2023-08-11T04:57:40.940Z,76.73
2023-08-11T05:00:14.839Z,76.73
2023-08-11T05:02:43.304Z,76.59
2023-08-11T05:05:10.467Z,77.13
2023-08-11T05:07:38.466Z,76.57
2023-08-11T05:10:05.801Z,76.51
2023-08-11T05:12:32.755Z,76.90
2023-08-11T05:14:59.545Z,76.17
2023-08-11T05:17:26.200Z,76.55
2023-08-11T05:19:52.930Z,76.74
2023-08-11T05:22:19.627Z,76.33
2023-08-11T05:24:46.308Z,76.09
2023-08-11T05:27:13.578Z,76.44
2023-08-11T05:29:40.317Z,76.74
2023-08-11T05:32:07.197Z,76.83
2023-08-11T05:34:34.122Z,76.43
2023-08-11T05:37:00.953Z,76.20
2023-08-11T05:39:27.658Z,76.02
2023-08-11T05:41:54.607Z,76.16
2023-08-11T05:44:21.361Z,76.25
2023-08-11T05:46:48.311Z,76.04
2023-08-11T05:49:15.196Z,76.48
2023-08-11T05:51:41.924Z,75.20
2023-08-11T05:54:08.680Z,74.40
2023-08-11T05:56:35.346Z,73.83
2023-08-11T05:59:02.054Z,72.63
2023-08-11T06:01:28.807Z,72.12
2023-08-11T06:03:55.583Z,71.73
2023-08-11T06:06:22.363Z,70.19
2023-08-11T06:08:49.285Z,68.54
2023-08-11T06:11:15.963Z,68.06
2023-08-11T06:13:42.819Z,67.69
2023-08-11T06:16:09.790Z,67.85
2023-08-11T06:18:36.651Z,65.78
2023-08-11T06:21:05.401Z,65.12
2023-08-11T06:23:33.577Z,63.00
2023-08-11T06:26:00.392Z,63.55
2023-08-11T06:28:27.213Z,62.04
2023-08-11T06:30:54.858Z,60.34
2023-08-11T06:33:22.501Z,60.65
2023-08-11T06:35:49.254Z,59.62
2023-08-11T06:38:15.907Z,58.54
2023-08-11T06:40:42.665Z,58.87
2023-08-11T06:43:09.421Z,58.08
2023-08-11T06:45:36.191Z,56.49
2023-08-11T06:48:03.067Z,55.47
2023-08-11T06:50:29.917Z,53.17
2023-08-11T06:52:59.301Z,53.68
2023-08-11T06:55:27.156Z,53.71
2023-08-11T06:57:53.818Z,53.60
2023-08-11T07:00:20.515Z,52.83
2023-08-11T07:02:47.268Z,50.58
2023-08-11T07:05:14.124Z,50.12
2023-08-11T07:07:40.939Z,49.76
2023-08-11T07:10:08.009Z,49.07
2023-08-11T07:12:34.806Z,48.80
2023-08-11T07:15:02.022Z,48.16
2023-08-11T07:17:28.714Z,46.95
2023-08-11T07:19:55.565Z,46.42
2023-08-11T07:22:22.312Z,46.91
2023-08-11T07:24:49.011Z,46.47
2023-08-11T07:27:17.617Z,45.01
2023-08-11T07:29:46.108Z,44.99
2023-08-11T07:32:12.801Z,44.51
2023-08-11T07:34:39.703Z,44.29
2023-08-11T07:37:06.747Z,43.56
2023-08-11T07:39:34.121Z,44.16
2023-08-11T07:42:04.200Z,44.28
2023-08-11T07:44:32.590Z,44.30
2023-08-11T07:46:59.956Z,43.62
2023-08-11T07:49:26.815Z,41.18
2023-08-11T07:51:53.559Z,41.00
2023-08-11T07:54:20.686Z,41.68
2023-08-11T07:56:47.553Z,41.09
2023-08-11T07:59:14.303Z,42.27
2023-08-11T08:01:41.068Z,42.17
2023-08-11T08:04:07.804Z,41.80
2023-08-11T08:06:37.286Z,42.18
2023-08-11T08:09:04.222Z,42.84
2023-08-11T08:11:30.953Z,41.71
2023-08-11T08:13:57.630Z,40.57
2023-08-11T08:16:24.364Z,40.40
2023-08-11T08:18:51.191Z,40.51
2023-08-11T08:21:17.849Z,40.49
2023-08-11T08:23:44.627Z,40.56
2023-08-11T08:26:11.326Z,40.46
2023-08-11T08:28:38.489Z,39.82
2023-08-11T08:31:07.135Z,41.39
2023-08-11T08:33:34.600Z,40.38
2023-08-11T08:36:01.351Z,40.30
2023-08-11T08:38:28.034Z,39.64
2023-08-11T08:40:55.043Z,39.21
2023-08-11T08:43:22.498Z,40.84
2023-08-11T08:45:51.963Z,40.05
2023-08-11T08:48:25.874Z,40.38
2023-08-11T08:50:52.781Z,40.64
2023-08-11T08:53:20.292Z,41.23
2023-08-11T08:55:47.617Z,40.66
2023-08-11T08:58:15.969Z,39.06
2023-08-11T09:00:44.240Z,38.90
2023-08-11T09:03:12.213Z,38.80
2023-08-11T09:05:39.356Z,39.68
2023-08-11T09:08:06.824Z,39.78
2023-08-11T09:10:37.730Z,37.19
2023-08-11T09:13:04.946Z,36.79
2023-08-11T09:15:31.677Z,37.36
2023-08-11T09:18:00.092Z,38.27
2023-08-11T09:20:28.082Z,38.22
2023-08-11T09:22:54.842Z,38.60
2023-08-11T09:25:21.776Z,38.72
2023-08-11T09:27:52.225Z,37.15
2023-08-11T09:30:18.950Z,35.91
2023-08-11T09:32:51.972Z,36.80
2023-08-11T09:35:25.037Z,34.92
2023-08-11T09:37:56.245Z,35.90
2023-08-11T09:40:23.895Z,37.21
2023-08-11T09:42:52.421Z,37.10
2023-08-11T09:45:19.437Z,36.92
2023-08-11T09:47:47.192Z,36.33
2023-08-11T09:50:14.453Z,37.91
2023-08-11T09:52:42.927Z,36.54
2023-08-11T09:55:14.177Z,35.29
2023-08-11T09:57:45.169Z,35.64
2023-08-11T10:00:15.951Z,36.69
2023-08-11T10:03:07.283Z,37.27
2023-08-11T10:05:40.831Z,37.37
2023-08-11T10:08:11.091Z,36.82
2023-08-11T10:10:39.816Z,37.41
2023-08-11T10:13:09.169Z,36.78
2023-08-11T10:15:36.598Z,35.77
2023-08-11T10:18:04.220Z,35.49
2023-08-11T10:20:31.572Z,35.83
2023-08-11T10:22:59.002Z,35.45
2023-08-11T10:25:26.810Z,35.30
2023-08-11T10:27:55.339Z,35.15
2023-08-11T10:30:24.384Z,34.34
2023-08-11T10:33:10.379Z,34.66
2023-08-11T10:35:46.936Z,34.15
2023-08-11T10:38:14.029Z,34.98
2023-08-11T10:40:41.191Z,35.34
2023-08-11T10:43:07.989Z,35.49
2023-08-11T10:45:37.452Z,36.56
2023-08-11T10:48:09.561Z,35.69
2023-08-11T10:50:38.602Z,36.25
2023-08-11T10:53:20.865Z,36.10
2023-08-11T10:56:04.254Z,37.67
2023-08-11T10:58:31.903Z,37.79
2023-08-11T11:00:59.536Z,38.21
2023-08-11T11:03:27.063Z,38.09
2023-08-11T11:05:53.803Z,38.71
2023-08-11T11:08:20.533Z,39.72
2023-08-11T11:10:50.681Z,39.57
2023-08-11T11:13:18.443Z,39.02
2023-08-11T11:15:45.623Z,40.24
2023-08-11T11:18:12.748Z,40.37
2023-08-11T11:20:39.548Z,39.44
2023-08-11T11:23:06.778Z,39.98
2023-08-11T11:25:33.701Z,40.40
2023-08-11T11:28:00.441Z,40.64
2023-08-11T11:30:27.197Z,40.83
2023-08-11T11:32:54.068Z,40.19
2023-08-11T11:35:20.827Z,39.90
2023-08-11T11:37:47.675Z,39.25
2023-08-11T11:40:15.137Z,39.72
2023-08-11T11:42:42.789Z,40.60
2023-08-11T11:45:11.863Z,40.27
2023-08-11T11:47:38.893Z,38.23
2023-08-11T11:50:09.705Z,38.63
2023-08-11T11:52:37.967Z,39.66
2023-08-11T11:55:07.419Z,39.58
2023-08-11T11:57:35.360Z,39.76
2023-08-11T12:00:04.454Z,39.23
2023-08-11T12:02:31.572Z,39.56
2023-08-11T12:04:58.634Z,39.82
2023-08-11T12:07:30.406Z,39.14
2023-08-11T12:09:57.366Z,39.30
2023-08-11T12:12:30.258Z,39.21
2023-08-11T12:15:08.260Z,38.69
2023-08-11T12:17:36.693Z,39.41
2023-08-11T12:20:09.571Z,39.88
2023-08-11T12:22:36.480Z,40.04
2023-08-11T12:25:03.374Z,37.71
2023-08-11T12:27:30.137Z,38.99
2023-08-11T12:29:56.897Z,38.86
2023-08-11T12:32:23.694Z,37.52
2023-08-11T12:34:50.439Z,37.62
2023-08-11T12:37:17.359Z,38.55
2023-08-11T12:39:44.149Z,36.70
2023-08-11T12:42:11.627Z,37.51
2023-08-11T12:44:40.523Z,36.42
2023-08-11T12:47:07.768Z,36.84
2023-08-11T12:49:34.618Z,37.61
2023-08-11T12:52:01.482Z,38.58
2023-08-11T12:54:28.276Z,38.49
2023-08-11T12:56:55.108Z,38.73
2023-08-11T12:59:21.961Z,38.00
2023-08-11T13:01:48.818Z,38.58
2023-08-11T13:04:15.749Z,38.77
2023-08-11T13:06:42.477Z,39.19
2023-08-11T13:09:09.270Z,38.91
2023-08-11T13:11:36.060Z,38.74
2023-08-11T13:14:03.778Z,39.16
2023-08-11T13:16:30.836Z,38.91
2023-08-11T13:18:57.669Z,38.74
2023-08-11T13:21:24.391Z,38.96
2023-08-11T13:23:51.140Z,39.05
2023-08-11T13:26:17.878Z,38.53
2023-08-11T13:28:44.614Z,38.58
2023-08-11T13:31:11.415Z,39.27
2023-08-11T13:33:38.379Z,38.69
2023-08-11T13:36:06.148Z,39.40
2023-08-11T13:38:33.253Z,39.18
2023-08-11T13:41:00.074Z,39.63
2023-08-11T13:43:26.958Z,38.54
2023-08-11T13:45:54.716Z,38.78
2023-08-11T13:48:24.779Z,39.07
2023-08-11T13:50:54.705Z,39.10
2023-08-11T13:53:21.603Z,37.19
2023-08-11T13:55:48.339Z,37.78
2023-08-11T13:58:15.177Z,37.91
2023-08-11T14:00:41.972Z,37.87
2023-08-11T14:03:08.714Z,38.95
2023-08-11T14:05:35.862Z,38.62
2023-08-11T14:08:02.608Z,38.21
2023-08-11T14:10:29.298Z,36.47
2023-08-11T14:12:56.035Z,35.90
2023-08-11T14:15:22.794Z,36.01
2023-08-11T14:17:49.483Z,36.83
2023-08-11T14:20:16.625Z,37.12
2023-08-11T14:22:43.370Z,36.87
2023-08-11T14:25:10.082Z,37.94
2023-08-11T14:27:36.847Z,37.54
2023-08-11T14:30:03.807Z,37.26
2023-08-11T14:32:30.684Z,37.91
2023-08-11T14:34:57.501Z,38.45
2023-08-11T14:37:24.279Z,36.44
2023-08-11T14:39:51.055Z,35.75
2023-08-11T14:42:18.096Z,36.00
2023-08-11T14:44:44.918Z,36.11
2023-08-11T14:47:15.468Z,37.41
2023-08-11T14:49:43.715Z,37.25
2023-08-11T14:52:11.836Z,35.76
2023-08-11T14:54:39.042Z,35.93
2023-08-11T14:57:06.645Z,37.10
2023-08-11T14:59:33.328Z,37.09
2023-08-11T15:01:59.981Z,37.24
2023-08-11T15:04:28.026Z,36.69
2023-08-11T15:06:55.012Z,37.17
2023-08-11T15:09:21.827Z,36.64
2023-08-11T15:11:49.395Z,36.82
2023-08-11T15:14:17.090Z,36.59
2023-08-11T15:16:43.900Z,37.02
2023-08-11T15:19:10.649Z,36.76
2023-08-11T15:21:37.647Z,37.03
2023-08-11T15:24:04.601Z,36.80
2023-08-11T15:26:31.281Z,37.20
2023-08-11T15:28:58.349Z,37.54
2023-08-11T15:31:25.208Z,38.12
2023-08-11T15:33:51.940Z,39.40
2023-08-11T15:36:21.071Z,39.38
2023-08-11T15:38:48.721Z,38.81
2023-08-11T15:41:15.522Z,37.60
2023-08-11T15:43:42.420Z,39.21
2023-08-11T15:46:09.297Z,39.35
2023-08-11T15:48:36.057Z,39.54
2023-08-11T15:51:04.116Z,39.35
2023-08-11T15:53:31.006Z,39.92
2023-08-11T15:55:57.821Z,39.92
2023-08-11T15:58:24.537Z,39.80
2023-08-11T16:00:52.244Z,39.99
2023-08-11T16:03:21.558Z,40.12
2023-08-11T16:05:49.100Z,40.31
2023-08-11T16:08:15.830Z,40.55
2023-08-11T16:10:43.622Z,39.28
2023-08-11T16:13:11.295Z,39.39
2023-08-11T16:15:38.334Z,39.47
2023-08-11T16:18:11.346Z,39.78
2023-08-11T16:20:38.474Z,40.07
2023-08-11T16:23:05.820Z,39.84
2023-08-11T16:25:32.674Z,39.90
2023-08-11T16:27:59.974Z,39.88
2023-08-11T16:30:26.708Z,39.96
2023-08-11T16:32:56.058Z,39.73
2023-08-11T16:35:23.023Z,40.01
2023-08-11T16:37:49.716Z,39.56
2023-08-11T16:40:16.561Z,39.94
2023-08-11T16:42:43.310Z,39.77
2023-08-11T16:45:10.457Z,39.76
2023-08-11T16:47:37.192Z,40.00
2023-08-11T16:50:04.052Z,40.26
2023-08-11T16:52:30.745Z,39.41
2023-08-11T16:54:58.864Z,39.28
2023-08-11T16:57:25.605Z,39.11
2023-08-11T16:59:52.268Z,39.33
2023-08-11T17:02:19.005Z,39.39
2023-08-11T17:04:45.803Z,39.67
2023-08-11T17:07:12.517Z,39.40
2023-08-11T17:09:39.273Z,39.95
2023-08-11T17:12:06.456Z,39.73
2023-08-11T17:14:33.169Z,40.22
2023-08-11T17:16:59.931Z,41.01
2023-08-11T17:19:26.838Z,40.72
2023-08-11T17:21:54.133Z,40.34
2023-08-11T17:24:20.871Z,40.57
2023-08-11T17:26:47.582Z,40.34
2023-08-11T17:29:14.261Z,40.46
2023-08-11T17:31:40.976Z,40.18
2023-08-11T17:34:07.712Z,40.05
2023-08-11T17:36:34.382Z,39.89
2023-08-11T17:39:01.368Z,40.09
2023-08-11T17:41:28.162Z,40.43
2023-08-11T17:43:57.818Z,40.53
2023-08-11T17:46:24.762Z,40.52
2023-08-11T17:48:53.605Z,41.01
2023-08-11T17:51:21.892Z,41.39
2023-08-11T17:53:59.697Z,41.69
2023-08-11T17:56:36.748Z,42.01
2023-08-11T17:59:03.842Z,42.77
2023-08-11T18:01:31.150Z,43.08
2023-08-11T18:04:02.654Z,43.53
2023-08-11T18:06:32.005Z,44.47
2023-08-11T18:08:58.688Z,44.45
2023-08-11T18:11:25.477Z,45.06
2023-08-11T18:13:52.193Z,45.11
2023-08-11T18:16:18.990Z,45.67
2023-08-11T18:18:45.864Z,46.18
2023-08-11T18:21:20.598Z,46.09
2023-08-11T18:23:48.098Z,45.87
2023-08-11T18:26:15.869Z,45.89
2023-08-11T18:28:42.802Z,46.91
2023-08-11T18:31:09.700Z,47.37
2023-08-11T18:33:36.400Z,47.34
2023-08-11T18:36:03.135Z,47.78
2023-08-11T18:38:29.907Z,48.26
2023-08-11T18:40:56.612Z,48.81
2023-08-11T18:43:23.392Z,48.85
2023-08-11T18:45:50.141Z,49.27
2023-08-11T18:48:17.091Z,48.91
2023-08-11T18:50:43.817Z,49.69
2023-08-11T18:53:10.509Z,49.82
2023-08-11T18:55:37.254Z,50.66
2023-08-11T18:58:04.757Z,51.25
2023-08-11T19:00:31.556Z,51.83
2023-08-11T19:02:58.238Z,51.58
2023-08-11T19:05:25.215Z,52.19
2023-08-11T19:07:51.981Z,53.81
2023-08-11T19:10:18.706Z,53.61
2023-08-11T19:12:45.415Z,53.93
2023-08-11T19:15:12.148Z,54.25
2023-08-11T19:17:38.845Z,55.05
2023-08-11T19:20:06.136Z,55.75
2023-08-11T19:22:32.823Z,55.79
2023-08-11T19:24:59.525Z,56.11
2023-08-11T19:27:28.395Z,56.41
2023-08-11T19:29:55.677Z,56.92
2023-08-11T19:32:22.496Z,57.29
2023-08-11T19:34:49.248Z,57.39
2023-08-11T19:37:16.053Z,57.96
2023-08-11T19:39:42.802Z,58.16
2023-08-11T19:42:09.675Z,58.48
2023-08-11T19:44:38.368Z,58.41
2023-08-11T19:47:05.257Z,58.39
2023-08-11T19:49:31.960Z,59.16
2023-08-11T19:51:58.785Z,58.62
2023-08-11T19:54:25.528Z,60.36
2023-08-11T19:56:52.351Z,59.94
2023-08-11T19:59:19.281Z,60.59
2023-08-11T20:01:46.048Z,60.31
2023-08-11T20:04:13.637Z,60.57
2023-08-11T20:06:40.458Z,61.22
2023-08-11T20:09:09.356Z,61.87
2023-08-11T20:11:36.166Z,61.44
2023-08-11T20:14:02.964Z,61.30
2023-08-11T20:16:29.638Z,62.08
2023-08-11T20:18:56.392Z,62.21
2023-08-11T20:21:23.116Z,62.47
2023-08-11T20:23:49.767Z,62.92
2023-08-11T20:26:16.447Z,63.28
2023-08-11T20:28:47.206Z,63.98
2023-08-11T20:31:15.373Z,63.81
2023-08-11T20:33:42.223Z,64.26
2023-08-11T20:36:08.997Z,64.52
2023-08-11T20:38:39.220Z,65.19
2023-08-11T20:41:06.273Z,65.28
2023-08-11T20:43:32.972Z,65.05
2023-08-11T20:46:01.112Z,65.49
2023-08-11T20:48:28.133Z,65.64
2023-08-11T20:51:03.667Z,65.79
2023-08-11T20:53:30.658Z,65.26
2023-08-11T20:56:00.949Z,65.63
2023-08-11T20:58:28.834Z,65.65
2023-08-11T21:00:55.990Z,65.45
2023-08-11T21:03:22.696Z,65.76
2023-08-11T21:05:49.513Z,66.03
2023-08-11T21:08:18.386Z,66.39
2023-08-11T21:10:46.307Z,66.55
2023-08-11T21:13:14.098Z,67.04
2023-08-11T21:15:41.033Z,67.29
2023-08-11T21:18:09.744Z,67.40
2023-08-11T21:20:37.364Z,67.35
2023-08-11T21:23:05.364Z,67.78
2023-08-11T21:25:33.344Z,68.36
2023-08-11T21:28:00.281Z,67.54
2023-08-11T21:30:27.098Z,68.28
2023-08-11T21:32:53.981Z,67.52
2023-08-11T21:35:21.439Z,68.04
2023-08-11T21:37:49.395Z,66.77
2023-08-11T21:40:16.192Z,67.71
2023-08-11T21:42:43.338Z,67.24
2023-08-11T21:45:11.017Z,68.13
2023-08-11T21:47:37.678Z,68.57
2023-08-11T21:50:04.732Z,69.21
2023-08-11T21:52:31.469Z,68.89
2023-08-11T21:54:58.149Z,69.19
2023-08-11T21:57:24.883Z,69.21
2023-08-11T21:59:51.752Z,68.94
2023-08-11T22:02:18.628Z,68.73
2023-08-11T22:04:46.575Z,69.02
2023-08-11T22:07:14.112Z,69.23
2023-08-11T22:09:42.789Z,68.48
2023-08-11T22:12:12.190Z,68.31
2023-08-11T22:14:39.256Z,68.79
2023-08-11T22:17:05.930Z,68.66
2023-08-11T22:19:36.463Z,68.40
2023-08-11T22:22:08.580Z,67.95
2023-08-11T22:24:41.013Z,68.02
2023-08-11T22:27:10.845Z,68.11
2023-08-11T22:29:38.088Z,67.79
2023-08-11T22:32:05.024Z,68.80
2023-08-11T22:34:31.805Z,69.28
2023-08-11T22:36:58.490Z,69.76
2023-08-11T22:39:25.265Z,70.01
2023-08-11T22:41:51.933Z,70.37
2023-08-11T22:44:18.682Z,69.44
2023-08-11T22:46:45.323Z,70.06
2023-08-11T22:49:12.097Z,70.11
2023-08-11T22:51:38.814Z,70.33
2023-08-11T22:54:05.838Z,71.04
2023-08-11T22:56:32.585Z,70.93
2023-08-11T22:58:59.450Z,71.24
2023-08-11T23:01:26.203Z,71.35
2023-08-11T23:03:52.979Z,71.26
2023-08-11T23:06:20.650Z,71.75
2023-08-11T23:08:47.392Z,71.90
2023-08-11T23:11:14.152Z,71.24
2023-08-11T23:13:40.886Z,71.26
2023-08-11T23:16:07.737Z,70.47
2023-08-11T23:18:34.540Z,70.54
2023-08-11T23:21:01.242Z,70.82
2023-08-11T23:23:29.322Z,70.70
2023-08-11T23:25:56.329Z,71.39
2023-08-11T23:28:22.999Z,71.66
2023-08-11T23:30:49.629Z,71.70
2023-08-11T23:33:16.614Z,71.41
2023-08-11T23:35:43.327Z,72.18
2023-08-11T23:38:11.972Z,72.28
2023-08-11T23:40:39.938Z,72.44
2023-08-11T23:43:06.584Z,72.55
2023-08-11T23:45:33.404Z,72.63
2023-08-11T23:48:00.285Z,72.20
2023-08-11T23:50:27.769Z,72.23
2023-08-11T23:52:54.435Z,72.87
2023-08-11T23:55:21.373Z,73.38
2023-08-11T23:57:48.215Z,73.06
